Flight Track Log - Related Links

Times and Time Zones

All times are in EST time to prevent confusion due to time zone crossing. See the SWA3321 flight status page for this flight to view local times or setup timezone preferences in your user account.

Time Position Orientation Groundspeed Altitude Reporting Facility
EST Latitude Longitude Course Direction KTS MPH feet Rate Location/Type
Sat 07:09:43 PM 29.9525 -90.2578 178° South 165 190 2,100  Level Houston Center
Sat 07:10:44 PM 29.8942 -90.2175 149° Southeast 246 283 6,100 3,951 Climbing Houston Center
Sat 07:11:46 PM 29.8406 -90.1572 136° Southeast 257 296 10,200 3,707 Climbing Houston Center
Sat 07:12:47 PM 29.7775 -90.0883 137° Southeast 281 323 13,700 3,220 Climbing Houston Center
Sat 07:13:49 PM 29.7089 -90.0117 136° Southeast 322 371 16,800 3,220 Climbing Houston Center
Sat 07:14:50 PM 29.6564 -89.9094 121° Southeast 371 427 20,300 3,171 Climbing Houston Center
Sat 07:15:52 PM 29.6297 -89.7883 104° East 391 450 23,300 2,585 Climbing Houston Center
Sat 07:16:53 PM 29.6008 -89.6611 105° East 410 472 25,600 2,341 Climbing Houston Center
Sat 07:17:55 PM 29.5622 -89.4958 105° East 441 507 28,100 2,195 Climbing Houston Center
Sat 07:18:56 PM 29.5294 -89.3525 105° East 458 527 30,100 1,902 Climbing Houston Center
Sat 07:19:58 PM 29.4939 -89.2039 105° East 474 545 32,000 1,756 Climbing Houston Center
Sat 07:20:59 PM 29.4581 -89.0525 105° East 487 560 33,700 1,623 Climbing Houston Center
Sat 07:22:00 PM 29.4222 -88.8956 105° East 503 579 35,300 1,512 Climbing Houston Center
Sat 07:23:02 PM 29.3853 -88.7389 105° East 511 588 36,800 1,561 Climbing Houston Center
Sat 07:24:03 PM 29.3475 -88.5808 105° East 514 592 38,500 1,707 Climbing Houston Center
Sat 07:25:05 PM 29.3014 -88.3925 106° East 514 592 40,300 1,220 Climbing Houston Center
Sat 07:26:06 PM 29.2656 -88.2397 105° East 502 578 41,000 341 Climbing Houston Center
Sat 07:27:08 PM 29.2275 -88.0869 106° East 500 575 41,000  Level Houston Center
Sat 07:28:09 PM 29.1906 -87.9322 105° East 500 575 41,000  Level Houston Center
Sat 07:29:10 PM 29.1522 -87.7806 106° East 498 573 41,000  Level Houston Center
Sat 07:30:12 PM 29.1147 -87.6283 106° East 499 574 41,000  Level Houston Center
Sat 07:31:13 PM 29.0764 -87.4775 106° East 497 572 41,000  Level Houston Center
Sat 07:32:14 PM 29.0394 -87.3278 106° East 495 570 41,000  Level Houston Center
Sat 07:33:16 PM 29.0011 -87.1775 106° East 494 568 41,000  Level Houston Center
Sat 07:34:17 PM 28.9553 -86.9967 106° East 495 570 41,000  Level Houston Center
Sat 07:35:24 PM 28.9156 -86.8442 107° East 488 562 41,000  Level Jacksonville Center
Sat 07:36:24 PM 28.8781 -86.7003 107° East 488 562 41,000  Level Jacksonville Center
Sat 07:37:24 PM 28.8386 -86.5494 107° East 488 562 41,000  Level Jacksonville Center
Sat 07:38:24 PM 28.7989 -86.4011 107° East 488 562 41,000  Level Jacksonville Center
Sat 07:39:23 PM 28.7633 -86.2483 105° East 488 562 41,000  Level Jacksonville Center
Sat 07:40:24 PM 28.7233 -86.1028 107° East 483 556 41,000  Level Jacksonville Center
Sat 07:41:23 PM 28.6833 -85.9500 107° East 488 562 41,000  Level Jacksonville Center
Sat 07:42:24 PM 28.6408 -85.7997 108° East 488 562 41,000  Level Jacksonville Center
Sat 07:43:24 PM 28.6022 -85.6542 107° East 483 556 41,000  Level Jacksonville Center
Sat 07:44:23 PM 28.5639 -85.4997 106° East 489 563 41,000 -1,348 Level Jacksonville Center
Sat 07:46:31 PM 28.4781 -85.1800 107° East 510 587 36,800 -2,362 Descending Miami Center
Sat 07:47:31 PM 28.4347 -85.0283 108° East 510 587 33,600 -3,350 Descending Miami Center
Sat 07:48:31 PM 28.3953 -84.8769 106° East 510 587 30,100 -3,150 Descending Miami Center
Sat 07:49:31 PM 28.3519 -84.7231 108° East 510 587 27,300 -2,600 Descending Miami Center
Sat 07:50:31 PM 28.3156 -84.5839 107° East 489 563 24,900 -1,150 Descending Miami Center
Sat 07:51:31 PM 28.2808 -84.4544 107° East 458 527 25,000 50 Climbing Miami Center
Sat 07:52:31 PM 28.2344 -84.3078 110° East 436 502 25,000  Level Miami Center
Sat 07:53:31 PM 28.1975 -84.1758 108° East 436 502 25,000  Level Miami Center
Sat 07:54:31 PM 28.1603 -84.0442 108° East 436 502 25,000  Level Miami Center
Sat 07:55:31 PM 28.1231 -83.9125 108° East 436 502 25,000 -1,050 Level Miami Center
Sat 07:56:31 PM 28.0878 -83.7833 107° East 431 496 22,900 -2,350 Descending Miami Center
Sat 07:57:31 PM 28.0519 -83.6567 108° East 431 496 20,300 -2,550 Descending Miami Center
Sat 07:58:31 PM 28.0181 -83.5347 107° East 424 488 17,800 -2,500 Descending Miami Center
Sat 07:59:31 PM 27.9861 -83.4178 107° East 409 471 15,300 -2,500 Descending Miami Center
Sat 08:00:31 PM 27.9533 -83.3103 109° East 382 440 12,800 -2,400 Descending Miami Center
Sat 08:01:31 PM 27.9228 -83.1981 107° East 372 428 10,500 -1,600 Descending Miami Center
Sat 08:02:31 PM 27.9603 -83.1061 65° Northeast 315 362 9,600 -950 Descending Miami Center
Sat 08:03:31 PM 28.0175 -83.0364 47° Northeast 293 337 8,600 -1,000 Descending Miami Center
Sat 08:04:31 PM 28.0669 -82.9569 55° Northeast 298 343 7,600 -950 Descending Miami Center
Sat 08:05:31 PM 28.0992 -82.8833 64° Northeast 293 337 6,700 -887 Descending Miami Center
Sat 08:06:26 PM 28.1333 -82.8000 65° Northeast 284 327 5,900 -887 Descending Tampa TRACON
Sat 08:07:26 PM 28.1500 -82.7333 74° East 224 258 5,000 -1,050 Descending Tampa TRACON
Sat 08:08:26 PM 28.1500 -82.6667 90° East 219 252 3,800 -1,450 Descending Tampa TRACON
Sat 08:09:26 PM 28.1333 -82.6000 106° East 218 251 2,100 -900 Descending Tampa TRACON
Sat 08:10:26 PM 28.1000 -82.5500 127° Southeast 204 235 2,000 -400 Descending Tampa TRACON
Sat 08:11:26 PM 28.0667 -82.5333 156° South 141 162 1,300 -650 Descending Tampa TRACON
Sat 08:12:26 PM 28.0167 -82.5500 196° South 119 137 700 -600 Descending Tampa TRACON
Sat 08:14:00 PM 27.9755 -82.5332 180° South  Level Estimated
Sat 08:21:00 PM 27.9755 -82.5332 19° North  Level Estimated
Sat 08:22:00 PM 27.9755 -82.5332 19° North  Level Estimated

Login

Don't have an account? Register now (free) for customized features, flight alerts, and more!